sensor_id;sensor_type;location;lat;lon;timestamp;P1;durP1;ratioP1;P2;durP2;ratioP2
18383;SDS011;9318;48.644;9.456;2022-11-14T00:00:24;35.53;;;18.27;;
18383;SDS011;9318;48.644;9.456;2022-11-14T00:02:51;36.53;;;18.40;;
18383;SDS011;9318;48.644;9.456;2022-11-14T00:05:20;38.07;;;19.10;;
18383;SDS011;9318;48.644;9.456;2022-11-14T00:07:47;36.13;;;18.97;;
18383;SDS011;9318;48.644;9.456;2022-11-14T00:10:15;39.27;;;18.60;;
18383;SDS011;9318;48.644;9.456;2022-11-14T00:12:42;34.93;;;17.23;;
18383;SDS011;9318;48.644;9.456;2022-11-14T00:15:10;36.50;;;17.53;;
18383;SDS011;9318;48.644;9.456;2022-11-14T00:17:38;39.03;;;18.13;;
18383;SDS011;9318;48.644;9.456;2022-11-14T00:20:06;37.00;;;16.77;;
18383;SDS011;9318;48.644;9.456;2022-11-14T00:22:37;35.60;;;16.67;;
18383;SDS011;9318;48.644;9.456;2022-11-14T00:25:04;37.33;;;16.30;;
18383;SDS011;9318;48.644;9.456;2022-11-14T00:27:32;35.20;;;17.00;;
18383;SDS011;9318;48.644;9.456;2022-11-14T00:29:59;31.73;;;16.07;;
18383;SDS011;9318;48.644;9.456;2022-11-14T00:32:26;36.27;;;17.07;;
18383;SDS011;9318;48.644;9.456;2022-11-14T00:34:53;32.70;;;16.27;;
18383;SDS011;9318;48.644;9.456;2022-11-14T00:37:20;35.00;;;16.20;;
18383;SDS011;9318;48.644;9.456;2022-11-14T00:39:49;33.13;;;16.13;;
18383;SDS011;9318;48.644;9.456;2022-11-14T00:42:16;32.37;;;16.27;;
18383;SDS011;9318;48.644;9.456;2022-11-14T00:44:43;35.00;;;17.13;;
18383;SDS011;9318;48.644;9.456;2022-11-14T00:47:11;31.43;;;15.37;;
18383;SDS011;9318;48.644;9.456;2022-11-14T00:49:38;34.77;;;16.47;;
18383;SDS011;9318;48.644;9.456;2022-11-14T00:52:05;32.77;;;16.30;;
18383;SDS011;9318;48.644;9.456;2022-11-14T00:54:32;34.50;;;17.37;;
18383;SDS011;9318;48.644;9.456;2022-11-14T00:57:01;33.73;;;16.07;;
18383;SDS011;9318;48.644;9.456;2022-11-14T00:59:28;35.20;;;16.23;;
18383;SDS011;9318;48.644;9.456;2022-11-14T01:01:55;31.13;;;15.00;;
18383;SDS011;9318;48.644;9.456;2022-11-14T01:04:22;31.03;;;14.97;;
18383;SDS011;9318;48.644;9.456;2022-11-14T01:06:49;34.33;;;15.40;;
18383;SDS011;9318;48.644;9.456;2022-11-14T01:09:16;33.93;;;16.10;;
18383;SDS011;9318;48.644;9.456;2022-11-14T01:11:43;34.83;;;15.90;;
18383;SDS011;9318;48.644;9.456;2022-11-14T01:14:12;31.60;;;16.07;;
18383;SDS011;9318;48.644;9.456;2022-11-14T01:16:39;33.43;;;16.20;;
18383;SDS011;9318;48.644;9.456;2022-11-14T01:19:07;30.50;;;15.37;;
18383;SDS011;9318;48.644;9.456;2022-11-14T01:21:34;32.17;;;16.13;;
18383;SDS011;9318;48.644;9.456;2022-11-14T01:24:01;34.27;;;15.87;;
18383;SDS011;9318;48.644;9.456;2022-11-14T01:26:29;33.10;;;16.00;;
18383;SDS011;9318;48.644;9.456;2022-11-14T01:28:56;29.03;;;14.80;;
18383;SDS011;9318;48.644;9.456;2022-11-14T01:31:25;32.50;;;15.80;;
18383;SDS011;9318;48.644;9.456;2022-11-14T01:33:52;34.63;;;15.97;;
18383;SDS011;9318;48.644;9.456;2022-11-14T01:36:20;32.83;;;16.30;;
18383;SDS011;9318;48.644;9.456;2022-11-14T01:38:50;33.47;;;15.60;;
18383;SDS011;9318;48.644;9.456;2022-11-14T01:41:18;34.63;;;16.83;;
18383;SDS011;9318;48.644;9.456;2022-11-14T01:43:46;34.07;;;15.83;;
18383;SDS011;9318;48.644;9.456;2022-11-14T01:46:15;30.33;;;14.63;;
18383;SDS011;9318;48.644;9.456;2022-11-14T01:48:49;29.03;;;14.17;;
18383;SDS011;9318;48.644;9.456;2022-11-14T01:51:21;28.83;;;13.70;;
18383;SDS011;9318;48.644;9.456;2022-11-14T01:53:52;29.23;;;14.90;;
18383;SDS011;9318;48.644;9.456;2022-11-14T01:56:22;30.53;;;14.23;;
18383;SDS011;9318;48.644;9.456;2022-11-14T01:58:53;27.17;;;13.83;;
18383;SDS011;9318;48.644;9.456;2022-11-14T02:01:24;28.07;;;14.50;;
18383;SDS011;9318;48.644;9.456;2022-11-14T02:03:54;30.37;;;14.03;;
18383;SDS011;9318;48.644;9.456;2022-11-14T02:06:22;30.53;;;15.17;;
18383;SDS011;9318;48.644;9.456;2022-11-14T02:08:52;36.00;;;15.93;;
18383;SDS011;9318;48.644;9.456;2022-11-14T02:11:21;36.70;;;15.57;;
18383;SDS011;9318;48.644;9.456;2022-11-14T02:13:49;36.50;;;15.90;;
18383;SDS011;9318;48.644;9.456;2022-11-14T02:16:16;35.70;;;16.07;;
18383;SDS011;9318;48.644;9.456;2022-11-14T02:18:44;39.90;;;16.80;;
18383;SDS011;9318;48.644;9.456;2022-11-14T02:21:12;39.17;;;16.67;;
18383;SDS011;9318;48.644;9.456;2022-11-14T02:23:39;41.07;;;16.57;;
18383;SDS011;9318;48.644;9.456;2022-11-14T02:26:07;38.43;;;16.83;;
18383;SDS011;9318;48.644;9.456;2022-11-14T02:28:34;36.17;;;16.37;;
18383;SDS011;9318;48.644;9.456;2022-11-14T02:31:01;35.50;;;15.83;;
18383;SDS011;9318;48.644;9.456;2022-11-14T02:33:29;48.27;;;16.37;;
18383;SDS011;9318;48.644;9.456;2022-11-14T02:35:56;38.80;;;15.83;;
18383;SDS011;9318;48.644;9.456;2022-11-14T02:38:25;41.07;;;17.00;;
18383;SDS011;9318;48.644;9.456;2022-11-14T02:40:52;41.00;;;16.90;;
18383;SDS011;9318;48.644;9.456;2022-11-14T02:43:19;40.20;;;16.90;;
18383;SDS011;9318;48.644;9.456;2022-11-14T02:45:46;42.80;;;17.20;;
18383;SDS011;9318;48.644;9.456;2022-11-14T02:48:13;46.67;;;16.37;;
18383;SDS011;9318;48.644;9.456;2022-11-14T02:50:40;43.13;;;15.03;;
18383;SDS011;9318;48.644;9.456;2022-11-14T02:53:08;39.57;;;15.43;;
18383;SDS011;9318;48.644;9.456;2022-11-14T02:55:37;39.37;;;15.67;;
18383;SDS011;9318;48.644;9.456;2022-11-14T02:58:04;39.80;;;15.43;;
18383;SDS011;9318;48.644;9.456;2022-11-14T03:00:31;32.70;;;14.33;;
18383;SDS011;9318;48.644;9.456;2022-11-14T03:02:59;36.67;;;15.10;;
18383;SDS011;9318;48.644;9.456;2022-11-14T03:05:26;29.37;;;13.87;;
18383;SDS011;9318;48.644;9.456;2022-11-14T03:07:53;32.43;;;14.43;;
18383;SDS011;9318;48.644;9.456;2022-11-14T03:10:20;30.57;;;13.70;;
18383;SDS011;9318;48.644;9.456;2022-11-14T03:12:52;28.70;;;13.87;;
18383;SDS011;9318;48.644;9.456;2022-11-14T03:15:20;29.37;;;13.93;;
18383;SDS011;9318;48.644;9.456;2022-11-14T03:17:47;31.17;;;12.93;;
18383;SDS011;9318;48.644;9.456;2022-11-14T03:20:18;32.33;;;12.37;;
18383;SDS011;9318;48.644;9.456;2022-11-14T03:22:45;28.37;;;13.17;;
18383;SDS011;9318;48.644;9.456;2022-11-14T03:25:13;26.57;;;13.03;;
18383;SDS011;9318;48.644;9.456;2022-11-14T03:27:40;27.63;;;12.20;;
18383;SDS011;9318;48.644;9.456;2022-11-14T03:30:09;26.20;;;12.07;;
18383;SDS011;9318;48.644;9.456;2022-11-14T03:32:37;25.80;;;12.60;;
18383;SDS011;9318;48.644;9.456;2022-11-14T03:35:05;29.07;;;12.43;;
18383;SDS011;9318;48.644;9.456;2022-11-14T03:37:33;27.00;;;12.40;;
18383;SDS011;9318;48.644;9.456;2022-11-14T03:40:00;27.03;;;13.60;;
18383;SDS011;9318;48.644;9.456;2022-11-14T03:42:28;26.13;;;12.63;;
18383;SDS011;9318;48.644;9.456;2022-11-14T03:44:58;25.67;;;12.67;;
18383;SDS011;9318;48.644;9.456;2022-11-14T03:47:27;26.37;;;12.90;;
18383;SDS011;9318;48.644;9.456;2022-11-14T03:49:54;27.13;;;12.57;;
18383;SDS011;9318;48.644;9.456;2022-11-14T03:52:21;29.73;;;12.77;;
18383;SDS011;9318;48.644;9.456;2022-11-14T03:54:50;26.63;;;12.27;;
18383;SDS011;9318;48.644;9.456;2022-11-14T03:57:17;25.73;;;12.23;;
18383;SDS011;9318;48.644;9.456;2022-11-14T03:59:44;25.37;;;12.40;;
18383;SDS011;9318;48.644;9.456;2022-11-14T04:02:11;24.97;;;11.53;;
18383;SDS011;9318;48.644;9.456;2022-11-14T04:04:40;22.60;;;11.40;;
18383;SDS011;9318;48.644;9.456;2022-11-14T04:07:07;22.43;;;10.60;;
18383;SDS011;9318;48.644;9.456;2022-11-14T04:09:35;22.67;;;10.67;;
18383;SDS011;9318;48.644;9.456;2022-11-14T04:12:02;27.33;;;11.53;;
18383;SDS011;9318;48.644;9.456;2022-11-14T04:14:29;22.27;;;11.27;;
18383;SDS011;9318;48.644;9.456;2022-11-14T04:16:56;22.97;;;11.20;;
18383;SDS011;9318;48.644;9.456;2022-11-14T04:19:23;23.03;;;11.47;;
18383;SDS011;9318;48.644;9.456;2022-11-14T04:21:52;25.07;;;11.80;;
18383;SDS011;9318;48.644;9.456;2022-11-14T04:24:19;22.97;;;11.37;;
18383;SDS011;9318;48.644;9.456;2022-11-14T04:26:46;21.13;;;10.77;;
18383;SDS011;9318;48.644;9.456;2022-11-14T04:29:14;21.00;;;10.70;;
18383;SDS011;9318;48.644;9.456;2022-11-14T04:31:41;24.90;;;12.37;;
18383;SDS011;9318;48.644;9.456;2022-11-14T04:34:08;23.83;;;11.90;;
18383;SDS011;9318;48.644;9.456;2022-11-14T04:36:35;24.67;;;11.97;;
18383;SDS011;9318;48.644;9.456;2022-11-14T04:39:04;22.70;;;11.23;;
18383;SDS011;9318;48.644;9.456;2022-11-14T04:41:31;23.93;;;11.77;;
18383;SDS011;9318;48.644;9.456;2022-11-14T04:43:58;25.47;;;11.93;;
18383;SDS011;9318;48.644;9.456;2022-11-14T04:46:26;27.17;;;12.47;;
18383;SDS011;9318;48.644;9.456;2022-11-14T04:48:53;23.43;;;11.53;;
18383;SDS011;9318;48.644;9.456;2022-11-14T04:51:20;23.37;;;11.93;;
18383;SDS011;9318;48.644;9.456;2022-11-14T04:53:48;23.50;;;11.87;;
18383;SDS011;9318;48.644;9.456;2022-11-14T04:56:16;26.63;;;12.60;;
18383;SDS011;9318;48.644;9.456;2022-11-14T04:58:47;25.80;;;12.27;;
18383;SDS011;9318;48.644;9.456;2022-11-14T05:01:15;24.63;;;12.23;;
18383;SDS011;9318;48.644;9.456;2022-11-14T05:03:42;26.10;;;12.43;;
18383;SDS011;9318;48.644;9.456;2022-11-14T05:06:09;26.10;;;12.90;;
18383;SDS011;9318;48.644;9.456;2022-11-14T05:08:36;24.60;;;12.63;;
18383;SDS011;9318;48.644;9.456;2022-11-14T05:11:04;26.17;;;12.50;;
18383;SDS011;9318;48.644;9.456;2022-11-14T05:13:32;32.07;;;14.07;;
18383;SDS011;9318;48.644;9.456;2022-11-14T05:16:00;38.50;;;14.47;;
18383;SDS011;9318;48.644;9.456;2022-11-14T05:18:27;28.47;;;14.27;;
18383;SDS011;9318;48.644;9.456;2022-11-14T05:20:56;31.13;;;14.30;;
18383;SDS011;9318;48.644;9.456;2022-11-14T05:23:24;28.93;;;13.60;;
18383;SDS011;9318;48.644;9.456;2022-11-14T05:25:58;30.40;;;13.97;;
18383;SDS011;9318;48.644;9.456;2022-11-14T05:28:26;27.43;;;13.60;;
18383;SDS011;9318;48.644;9.456;2022-11-14T05:31:00;23.77;;;11.93;;
18383;SDS011;9318;48.644;9.456;2022-11-14T05:33:28;26.63;;;12.67;;
18383;SDS011;9318;48.644;9.456;2022-11-14T05:35:56;27.63;;;12.13;;
18383;SDS011;9318;48.644;9.456;2022-11-14T05:38:27;25.23;;;11.80;;
18383;SDS011;9318;48.644;9.456;2022-11-14T05:40:55;28.93;;;12.43;;
18383;SDS011;9318;48.644;9.456;2022-11-14T05:43:22;23.23;;;11.40;;
18383;SDS011;9318;48.644;9.456;2022-11-14T05:45:49;24.40;;;11.63;;
18383;SDS011;9318;48.644;9.456;2022-11-14T05:48:18;22.53;;;11.33;;
18383;SDS011;9318;48.644;9.456;2022-11-14T05:50:45;24.13;;;11.80;;
18383;SDS011;9318;48.644;9.456;2022-11-14T05:53:12;20.93;;;10.73;;
18383;SDS011;9318;48.644;9.456;2022-11-14T05:55:39;19.27;;;10.13;;
18383;SDS011;9318;48.644;9.456;2022-11-14T05:58:06;22.17;;;10.80;;
18383;SDS011;9318;48.644;9.456;2022-11-14T06:00:34;18.60;;;9.93;;
18383;SDS011;9318;48.644;9.456;2022-11-14T06:03:01;20.40;;;10.17;;
18383;SDS011;9318;48.644;9.456;2022-11-14T06:05:30;18.27;;;9.63;;
18383;SDS011;9318;48.644;9.456;2022-11-14T06:07:59;18.47;;;9.70;;
18383;SDS011;9318;48.644;9.456;2022-11-14T06:10:27;18.80;;;10.13;;
18383;SDS011;9318;48.644;9.456;2022-11-14T06:12:55;17.43;;;9.70;;
18383;SDS011;9318;48.644;9.456;2022-11-14T06:15:22;18.60;;;10.00;;
18383;SDS011;9318;48.644;9.456;2022-11-14T06:17:51;18.13;;;9.80;;
18383;SDS011;9318;48.644;9.456;2022-11-14T06:20:18;22.47;;;11.07;;
18383;SDS011;9318;48.644;9.456;2022-11-14T06:22:47;24.07;;;11.90;;
18383;SDS011;9318;48.644;9.456;2022-11-14T06:25:14;21.23;;;11.13;;
18383;SDS011;9318;48.644;9.456;2022-11-14T06:27:42;19.13;;;10.00;;
18383;SDS011;9318;48.644;9.456;2022-11-14T06:30:10;22.40;;;11.47;;
18383;SDS011;9318;48.644;9.456;2022-11-14T06:32:37;23.23;;;11.27;;
18383;SDS011;9318;48.644;9.456;2022-11-14T06:35:05;19.03;;;9.90;;
18383;SDS011;9318;48.644;9.456;2022-11-14T06:37:34;19.57;;;9.90;;
18383;SDS011;9318;48.644;9.456;2022-11-14T06:40:03;19.37;;;9.87;;
18383;SDS011;9318;48.644;9.456;2022-11-14T06:42:31;16.83;;;9.10;;
18383;SDS011;9318;48.644;9.456;2022-11-14T06:44:58;15.63;;;9.00;;
18383;SDS011;9318;48.644;9.456;2022-11-14T06:47:25;16.93;;;9.10;;
18383;SDS011;9318;48.644;9.456;2022-11-14T06:49:52;17.40;;;9.00;;
18383;SDS011;9318;48.644;9.456;2022-11-14T06:52:19;18.57;;;9.63;;
18383;SDS011;9318;48.644;9.456;2022-11-14T06:54:47;17.77;;;9.23;;
18383;SDS011;9318;48.644;9.456;2022-11-14T06:57:16;17.20;;;9.70;;
18383;SDS011;9318;48.644;9.456;2022-11-14T06:59:44;19.50;;;10.23;;
18383;SDS011;9318;48.644;9.456;2022-11-14T07:02:12;15.93;;;9.57;;
18383;SDS011;9318;48.644;9.456;2022-11-14T07:04:40;16.37;;;9.53;;
18383;SDS011;9318;48.644;9.456;2022-11-14T07:07:07;18.30;;;10.17;;
18383;SDS011;9318;48.644;9.456;2022-11-14T07:09:34;17.97;;;9.70;;
18383;SDS011;9318;48.644;9.456;2022-11-14T07:12:01;16.07;;;8.47;;
18383;SDS011;9318;48.644;9.456;2022-11-14T07:14:30;16.40;;;9.10;;
18383;SDS011;9318;48.644;9.456;2022-11-14T07:16:57;16.27;;;8.77;;
18383;SDS011;9318;48.644;9.456;2022-11-14T07:19:25;14.33;;;8.43;;
18383;SDS011;9318;48.644;9.456;2022-11-14T07:21:52;16.10;;;8.73;;
18383;SDS011;9318;48.644;9.456;2022-11-14T07:24:19;17.53;;;9.10;;
18383;SDS011;9318;48.644;9.456;2022-11-14T07:26:47;16.70;;;8.50;;
18383;SDS011;9318;48.644;9.456;2022-11-14T07:29:14;17.33;;;9.27;;
18383;SDS011;9318;48.644;9.456;2022-11-14T07:31:42;17.20;;;9.50;;
18383;SDS011;9318;48.644;9.456;2022-11-14T07:34:10;20.10;;;9.90;;
18383;SDS011;9318;48.644;9.456;2022-11-14T07:36:38;25.10;;;12.63;;
18383;SDS011;9318;48.644;9.456;2022-11-14T07:39:05;25.83;;;14.60;;
18383;SDS011;9318;48.644;9.456;2022-11-14T07:41:32;30.63;;;17.53;;
18383;SDS011;9318;48.644;9.456;2022-11-14T07:43:59;27.87;;;16.57;;
18383;SDS011;9318;48.644;9.456;2022-11-14T07:46:26;28.57;;;16.90;;
18383;SDS011;9318;48.644;9.456;2022-11-14T07:48:55;29.90;;;16.23;;
18383;SDS011;9318;48.644;9.456;2022-11-14T07:51:22;26.23;;;14.67;;
18383;SDS011;9318;48.644;9.456;2022-11-14T07:53:50;26.17;;;13.63;;
18383;SDS011;9318;48.644;9.456;2022-11-14T07:56:18;22.73;;;12.53;;
18383;SDS011;9318;48.644;9.456;2022-11-14T07:58:46;23.40;;;12.73;;
18383;SDS011;9318;48.644;9.456;2022-11-14T08:01:14;24.20;;;12.83;;
18383;SDS011;9318;48.644;9.456;2022-11-14T08:03:41;23.07;;;12.77;;
18383;SDS011;9318;48.644;9.456;2022-11-14T08:06:11;23.90;;;12.83;;
18383;SDS011;9318;48.644;9.456;2022-11-14T08:08:39;23.67;;;13.27;;
18383;SDS011;9318;48.644;9.456;2022-11-14T08:11:07;25.30;;;13.23;;
18383;SDS011;9318;48.644;9.456;2022-11-14T08:13:34;23.67;;;13.50;;
18383;SDS011;9318;48.644;9.456;2022-11-14T08:16:05;23.77;;;13.90;;
18383;SDS011;9318;48.644;9.456;2022-11-14T08:18:34;25.10;;;13.87;;
18383;SDS011;9318;48.644;9.456;2022-11-14T08:21:02;24.50;;;13.80;;
18383;SDS011;9318;48.644;9.456;2022-11-14T08:23:31;24.57;;;13.27;;
18383;SDS011;9318;48.644;9.456;2022-11-14T08:25:59;22.83;;;12.57;;
18383;SDS011;9318;48.644;9.456;2022-11-14T08:28:26;22.30;;;12.67;;
18383;SDS011;9318;48.644;9.456;2022-11-14T08:30:57;24.43;;;12.80;;
18383;SDS011;9318;48.644;9.456;2022-11-14T08:33:25;23.37;;;12.37;;
18383;SDS011;9318;48.644;9.456;2022-11-14T08:35:53;25.60;;;12.83;;
18383;SDS011;9318;48.644;9.456;2022-11-14T08:38:20;25.93;;;13.87;;
18383;SDS011;9318;48.644;9.456;2022-11-14T08:40:49;23.70;;;12.10;;
18383;SDS011;9318;48.644;9.456;2022-11-14T08:43:17;23.27;;;11.63;;
18383;SDS011;9318;48.644;9.456;2022-11-14T08:45:44;22.80;;;11.10;;
18383;SDS011;9318;48.644;9.456;2022-11-14T08:48:11;20.70;;;10.77;;
18383;SDS011;9318;48.644;9.456;2022-11-14T08:50:38;19.70;;;10.23;;
18383;SDS011;9318;48.644;9.456;2022-11-14T08:53:06;22.03;;;11.40;;
18383;SDS011;9318;48.644;9.456;2022-11-14T08:55:33;19.23;;;9.60;;
18383;SDS011;9318;48.644;9.456;2022-11-14T08:58:02;19.13;;;10.27;;
18383;SDS011;9318;48.644;9.456;2022-11-14T09:00:29;18.90;;;9.60;;
18383;SDS011;9318;48.644;9.456;2022-11-14T09:02:56;20.50;;;9.60;;
18383;SDS011;9318;48.644;9.456;2022-11-14T09:05:23;18.93;;;9.60;;
18383;SDS011;9318;48.644;9.456;2022-11-14T09:07:50;21.57;;;9.83;;
18383;SDS011;9318;48.644;9.456;2022-11-14T09:10:18;18.97;;;9.27;;
18383;SDS011;9318;48.644;9.456;2022-11-14T09:12:45;21.73;;;9.67;;
18383;SDS011;9318;48.644;9.456;2022-11-14T09:15:13;17.10;;;9.50;;
18383;SDS011;9318;48.644;9.456;2022-11-14T09:17:41;19.77;;;9.07;;
18383;SDS011;9318;48.644;9.456;2022-11-14T09:20:08;23.60;;;10.30;;
18383;SDS011;9318;48.644;9.456;2022-11-14T09:22:36;20.20;;;9.93;;
18383;SDS011;9318;48.644;9.456;2022-11-14T09:25:03;17.87;;;9.60;;
18383;SDS011;9318;48.644;9.456;2022-11-14T09:27:31;19.73;;;9.80;;
18383;SDS011;9318;48.644;9.456;2022-11-14T09:29:58;23.93;;;10.30;;
18383;SDS011;9318;48.644;9.456;2022-11-14T09:32:27;18.47;;;9.57;;
18383;SDS011;9318;48.644;9.456;2022-11-14T09:34:54;22.00;;;10.93;;
18383;SDS011;9318;48.644;9.456;2022-11-14T09:37:22;21.43;;;10.70;;
18383;SDS011;9318;48.644;9.456;2022-11-14T09:39:49;19.53;;;9.87;;
18383;SDS011;9318;48.644;9.456;2022-11-14T09:42:21;20.70;;;10.90;;
18383;SDS011;9318;48.644;9.456;2022-11-14T09:44:56;21.27;;;10.10;;
18383;SDS011;9318;48.644;9.456;2022-11-14T09:47:28;19.60;;;10.20;;
18383;SDS011;9318;48.644;9.456;2022-11-14T09:50:00;19.03;;;8.70;;
18383;SDS011;9318;48.644;9.456;2022-11-14T09:52:34;22.83;;;10.23;;
18383;SDS011;9318;48.644;9.456;2022-11-14T09:55:07;19.90;;;9.30;;
18383;SDS011;9318;48.644;9.456;2022-11-14T09:57:37;16.87;;;8.77;;
18383;SDS011;9318;48.644;9.456;2022-11-14T10:00:13;16.90;;;8.77;;
18383;SDS011;9318;48.644;9.456;2022-11-14T10:02:53;17.70;;;8.37;;
18383;SDS011;9318;48.644;9.456;2022-11-14T10:05:32;19.53;;;8.57;;
18383;SDS011;9318;48.644;9.456;2022-11-14T10:08:14;15.93;;;7.97;;
18383;SDS011;9318;48.644;9.456;2022-11-14T10:10:52;15.50;;;8.07;;
18383;SDS011;9318;48.644;9.456;2022-11-14T10:13:37;9.47;;;4.67;;
18383;SDS011;9318;48.644;9.456;2022-11-14T10:16:25;11.20;;;6.03;;
18383;SDS011;9318;48.644;9.456;2022-11-14T10:19:08;10.80;;;5.80;;
18383;SDS011;9318;48.644;9.456;2022-11-14T10:21:53;11.20;;;5.23;;
18383;SDS011;9318;48.644;9.456;2022-11-14T10:24:44;7.10;;;3.50;;
18383;SDS011;9318;48.644;9.456;2022-11-14T10:27:30;3.93;;;2.60;;
18383;SDS011;9318;48.644;9.456;2022-11-14T10:30:03;2.73;;;2.40;;
18383;SDS011;9318;48.644;9.456;2022-11-14T10:35:37;4.43;;;2.37;;
18383;SDS011;9318;48.644;9.456;2022-11-14T10:38:09;3.57;;;2.33;;
18383;SDS011;9318;48.644;9.456;2022-11-14T10:40:43;2.70;;;2.30;;
18383;SDS011;9318;48.644;9.456;2022-11-14T10:43:15;2.83;;;2.10;;
18383;SDS011;9318;48.644;9.456;2022-11-14T10:45:49;2.40;;;2.20;;
18383;SDS011;9318;48.644;9.456;2022-11-14T10:48:23;3.00;;;2.40;;
18383;SDS011;9318;48.644;9.456;2022-11-14T10:50:57;2.50;;;2.10;;
18383;SDS011;9318;48.644;9.456;2022-11-14T10:53:27;2.83;;;2.40;;
18383;SDS011;9318;48.644;9.456;2022-11-14T10:56:03;3.10;;;2.30;;
18383;SDS011;9318;48.644;9.456;2022-11-14T10:58:30;4.03;;;2.50;;
18383;SDS011;9318;48.644;9.456;2022-11-14T11:04:00;2.47;;;2.20;;
18383;SDS011;9318;48.644;9.456;2022-11-14T11:06:40;2.40;;;2.10;;
18383;SDS011;9318;48.644;9.456;2022-11-14T11:09:07;2.70;;;2.33;;
18383;SDS011;9318;48.644;9.456;2022-11-14T11:11:56;2.40;;;2.20;;
18383;SDS011;9318;48.644;9.456;2022-11-14T11:14:25;2.00;;;1.90;;
18383;SDS011;9318;48.644;9.456;2022-11-14T11:17:07;4.97;;;2.23;;
18383;SDS011;9318;48.644;9.456;2022-11-14T11:19:45;5.37;;;2.27;;
18383;SDS011;9318;48.644;9.456;2022-11-14T11:22:26;3.43;;;2.10;;
18383;SDS011;9318;48.644;9.456;2022-11-14T11:24:56;2.80;;;2.23;;
18383;SDS011;9318;48.644;9.456;2022-11-14T11:27:24;2.70;;;2.10;;
18383;SDS011;9318;48.644;9.456;2022-11-14T11:30:03;2.20;;;2.00;;
18383;SDS011;9318;48.644;9.456;2022-11-14T11:32:41;3.83;;;2.40;;
18383;SDS011;9318;48.644;9.456;2022-11-14T11:35:11;2.30;;;2.10;;
18383;SDS011;9318;48.644;9.456;2022-11-14T11:37:42;2.93;;;2.20;;
18383;SDS011;9318;48.644;9.456;2022-11-14T11:40:16;2.20;;;1.90;;
18383;SDS011;9318;48.644;9.456;2022-11-14T11:42:48;5.60;;;2.00;;
18383;SDS011;9318;48.644;9.456;2022-11-14T11:45:21;2.30;;;2.10;;
18383;SDS011;9318;48.644;9.456;2022-11-14T11:47:50;1.97;;;1.80;;
18383;SDS011;9318;48.644;9.456;2022-11-14T11:50:22;2.33;;;2.10;;
18383;SDS011;9318;48.644;9.456;2022-11-14T11:53:04;4.87;;;2.17;;
18383;SDS011;9318;48.644;9.456;2022-11-14T11:55:40;2.50;;;2.10;;
18383;SDS011;9318;48.644;9.456;2022-11-14T11:58:10;3.23;;;2.27;;
18383;SDS011;9318;48.644;9.456;2022-11-14T12:00:45;3.40;;;2.30;;
18383;SDS011;9318;48.644;9.456;2022-11-14T12:03:12;2.40;;;2.10;;
18383;SDS011;9318;48.644;9.456;2022-11-14T12:05:44;4.93;;;2.30;;
18383;SDS011;9318;48.644;9.456;2022-11-14T12:08:23;2.53;;;2.33;;
18383;SDS011;9318;48.644;9.456;2022-11-14T12:10:57;5.63;;;2.40;;
18383;SDS011;9318;48.644;9.456;2022-11-14T12:16:27;3.53;;;2.30;;
18383;SDS011;9318;48.644;9.456;2022-11-14T12:19:13;2.47;;;2.27;;
18383;SDS011;9318;48.644;9.456;2022-11-14T12:22:10;3.27;;;2.00;;
18383;SDS011;9318;48.644;9.456;2022-11-14T12:24:57;3.10;;;2.27;;
18383;SDS011;9318;48.644;9.456;2022-11-14T12:27:36;3.70;;;2.23;;
18383;SDS011;9318;48.644;9.456;2022-11-14T12:30:15;2.40;;;2.20;;
18383;SDS011;9318;48.644;9.456;2022-11-14T12:32:47;3.83;;;2.20;;
18383;SDS011;9318;48.644;9.456;2022-11-14T12:35:19;3.07;;;2.27;;
18383;SDS011;9318;48.644;9.456;2022-11-14T12:37:50;4.10;;;2.40;;
18383;SDS011;9318;48.644;9.456;2022-11-14T12:40:23;4.10;;;2.50;;
18383;SDS011;9318;48.644;9.456;2022-11-14T12:42:54;4.23;;;2.50;;
18383;SDS011;9318;48.644;9.456;2022-11-14T12:48:29;3.90;;;2.30;;
18383;SDS011;9318;48.644;9.456;2022-11-14T12:50:58;3.70;;;2.40;;
18383;SDS011;9318;48.644;9.456;2022-11-14T12:53:40;3.90;;;2.40;;
18383;SDS011;9318;48.644;9.456;2022-11-14T13:02:10;7.53;;;2.87;;
18383;SDS011;9318;48.644;9.456;2022-11-14T13:04:58;5.17;;;3.00;;
18383;SDS011;9318;48.644;9.456;2022-11-14T13:07:43;5.73;;;2.53;;
18383;SDS011;9318;48.644;9.456;2022-11-14T13:10:21;3.30;;;2.30;;
18383;SDS011;9318;48.644;9.456;2022-11-14T13:13:01;4.20;;;2.60;;
18383;SDS011;9318;48.644;9.456;2022-11-14T13:15:49;5.00;;;2.50;;
18383;SDS011;9318;48.644;9.456;2022-11-14T13:18:38;5.60;;;3.00;;
18383;SDS011;9318;48.644;9.456;2022-11-14T13:21:35;4.37;;;2.50;;
18383;SDS011;9318;48.644;9.456;2022-11-14T13:24:12;4.87;;;2.67;;
18383;SDS011;9318;48.644;9.456;2022-11-14T13:26:44;3.53;;;2.40;;
18383;SDS011;9318;48.644;9.456;2022-11-14T13:35:37;3.30;;;2.10;;
18383;SDS011;9318;48.644;9.456;2022-11-14T13:38:27;4.37;;;2.30;;
18383;SDS011;9318;48.644;9.456;2022-11-14T13:41:21;4.77;;;2.30;;
18383;SDS011;9318;48.644;9.456;2022-11-14T13:44:18;3.70;;;2.07;;
18383;SDS011;9318;48.644;9.456;2022-11-14T13:47:02;2.60;;;1.90;;
18383;SDS011;9318;48.644;9.456;2022-11-14T13:49:48;3.23;;;2.13;;
18383;SDS011;9318;48.644;9.456;2022-11-14T13:52:23;2.47;;;2.27;;
18383;SDS011;9318;48.644;9.456;2022-11-14T13:54:54;5.80;;;2.50;;
18383;SDS011;9318;48.644;9.456;2022-11-14T13:57:24;3.83;;;2.30;;
18383;SDS011;9318;48.644;9.456;2022-11-14T14:00:00;3.50;;;2.40;;
18383;SDS011;9318;48.644;9.456;2022-11-14T14:02:49;5.57;;;2.10;;
18383;SDS011;9318;48.644;9.456;2022-11-14T14:05:31;5.83;;;2.60;;
18383;SDS011;9318;48.644;9.456;2022-11-14T14:08:22;2.57;;;2.27;;
18383;SDS011;9318;48.644;9.456;2022-11-14T14:11:02;3.70;;;2.50;;
18383;SDS011;9318;48.644;9.456;2022-11-14T14:13:46;4.30;;;2.50;;
18383;SDS011;9318;48.644;9.456;2022-11-14T14:16:21;3.30;;;2.67;;
18383;SDS011;9318;48.644;9.456;2022-11-14T14:19:01;4.83;;;2.60;;
18383;SDS011;9318;48.644;9.456;2022-11-14T14:21:36;6.57;;;3.00;;
18383;SDS011;9318;48.644;9.456;2022-11-14T14:24:15;4.97;;;2.70;;
18383;SDS011;9318;48.644;9.456;2022-11-14T14:27:01;4.40;;;2.37;;
18383;SDS011;9318;48.644;9.456;2022-11-14T14:29:42;5.33;;;2.77;;
18383;SDS011;9318;48.644;9.456;2022-11-14T14:32:17;7.67;;;2.80;;
18383;SDS011;9318;48.644;9.456;2022-11-14T14:34:45;5.20;;;2.77;;
18383;SDS011;9318;48.644;9.456;2022-11-14T14:37:16;3.97;;;2.87;;
18383;SDS011;9318;48.644;9.456;2022-11-14T14:39:55;5.17;;;3.33;;
18383;SDS011;9318;48.644;9.456;2022-11-14T14:42:24;10.60;;;4.40;;
18383;SDS011;9318;48.644;9.456;2022-11-14T14:44:53;7.23;;;3.50;;
18383;SDS011;9318;48.644;9.456;2022-11-14T14:47:35;5.17;;;3.20;;
18383;SDS011;9318;48.644;9.456;2022-11-14T14:50:07;4.53;;;2.83;;
18383;SDS011;9318;48.644;9.456;2022-11-14T14:52:41;6.87;;;2.77;;
18383;SDS011;9318;48.644;9.456;2022-11-14T14:55:18;5.13;;;3.33;;
18383;SDS011;9318;48.644;9.456;2022-11-14T14:57:48;5.47;;;3.50;;
18383;SDS011;9318;48.644;9.456;2022-11-14T15:00:17;4.43;;;3.00;;
18383;SDS011;9318;48.644;9.456;2022-11-14T15:02:47;4.93;;;3.03;;
18383;SDS011;9318;48.644;9.456;2022-11-14T15:05:22;5.50;;;3.07;;
18383;SDS011;9318;48.644;9.456;2022-11-14T15:07:51;5.80;;;3.10;;
18383;SDS011;9318;48.644;9.456;2022-11-14T15:10:24;5.33;;;2.70;;
18383;SDS011;9318;48.644;9.456;2022-11-14T15:12:54;4.90;;;2.67;;
18383;SDS011;9318;48.644;9.456;2022-11-14T15:15:22;5.97;;;2.47;;
18383;SDS011;9318;48.644;9.456;2022-11-14T15:17:51;5.27;;;2.87;;
18383;SDS011;9318;48.644;9.456;2022-11-14T15:20:21;5.67;;;3.20;;
18383;SDS011;9318;48.644;9.456;2022-11-14T15:23:03;5.80;;;2.90;;
18383;SDS011;9318;48.644;9.456;2022-11-14T15:25:33;4.30;;;2.77;;
18383;SDS011;9318;48.644;9.456;2022-11-14T15:28:00;5.63;;;2.90;;
18383;SDS011;9318;48.644;9.456;2022-11-14T15:30:29;4.43;;;2.90;;